<?xml version="1.0" encoding="UTF-8" standalone="no" ?>
<gpx xmlns="http://www.topografix.com/GPX/1/1" xmlns:xsi="http://www.w3.org/2001/XMLSchema-instance" xsi:schemaLocation="http://www.topografix.com/GPX/1/1 http://www.topografix.com/GPX/1/1/gpx.xsd" version="1.1" creator="VisuGPX - https://www.visugpx.com">
  <metadata>
    <name>Lorleau 2018 L'après-midi</name>
    <desc><![CDATA[Parcours des Sangliers du Vexin à partir de Lorleau l'après-midi du 20/10/2018]]></desc>
  </metadata>
  <trk>
    <name><![CDATA[9204420-Lorleau l'après-midi des Sangliers]]></name>
    <trkseg>
      <trkpt lat="49.41298" lon="1.49883">
        <ele>98</ele>
        <time>2018-10-11T15:31:46Z</time>
      </trkpt>
      <trkpt lat="49.41351" lon="1.49886">
        <ele>99</ele>
        <time>2018-10-11T15:32:46Z</time>
      </trkpt>
      <trkpt lat="49.41363" lon="1.49926">
        <ele>98</ele>
        <time>2018-10-11T15:33:46Z</time>
      </trkpt>
      <trkpt lat="49.41396" lon="1.49978">
        <ele>98</ele>
        <time>2018-10-11T15:34:46Z</time>
      </trkpt>
      <trkpt lat="49.41461" lon="1.50263">
        <ele>98</ele>
        <time>2018-10-11T15:35:46Z</time>
      </trkpt>
      <trkpt lat="49.41448" lon="1.50414">
        <ele>100</ele>
        <time>2018-10-11T15:36:46Z</time>
      </trkpt>
      <trkpt lat="49.41469" lon="1.50511">
        <ele>100</ele>
        <time>2018-10-11T15:37:46Z</time>
      </trkpt>
      <trkpt lat="49.41512" lon="1.50547">
        <ele>101</ele>
        <time>2018-10-11T15:38:46Z</time>
      </trkpt>
      <trkpt lat="49.41657" lon="1.50455">
        <ele>103</ele>
        <time>2018-10-11T15:39:46Z</time>
      </trkpt>
      <trkpt lat="49.41615" lon="1.50585">
        <ele>107</ele>
        <time>2018-10-11T15:40:46Z</time>
      </trkpt>
      <trkpt lat="49.416" lon="1.50804">
        <ele>114</ele>
        <time>2018-10-11T15:41:46Z</time>
      </trkpt>
      <trkpt lat="49.4168" lon="1.50626">
        <ele>120</ele>
        <time>2018-10-11T15:42:46Z</time>
      </trkpt>
      <trkpt lat="49.41749" lon="1.50563">
        <ele>119</ele>
        <time>2018-10-11T15:43:46Z</time>
      </trkpt>
      <trkpt lat="49.4171" lon="1.50718">
        <ele>134</ele>
        <time>2018-10-11T15:44:46Z</time>
      </trkpt>
      <trkpt lat="49.41755" lon="1.50701">
        <ele>141</ele>
        <time>2018-10-11T15:45:46Z</time>
      </trkpt>
      <trkpt lat="49.41811" lon="1.50644">
        <ele>140</ele>
        <time>2018-10-11T15:46:46Z</time>
      </trkpt>
      <trkpt lat="49.41966" lon="1.50636">
        <ele>153</ele>
        <time>2018-10-11T15:47:46Z</time>
      </trkpt>
      <trkpt lat="49.42191" lon="1.50473">
        <ele>150</ele>
        <time>2018-10-11T15:48:46Z</time>
      </trkpt>
      <trkpt lat="49.42327" lon="1.50621">
        <ele>154</ele>
        <time>2018-10-11T15:49:46Z</time>
      </trkpt>
      <trkpt lat="49.42503" lon="1.51059">
        <ele>157</ele>
        <time>2018-10-11T15:50:46Z</time>
      </trkpt>
      <trkpt lat="49.42485" lon="1.50756">
        <ele>135</ele>
        <time>2018-10-11T15:51:46Z</time>
      </trkpt>
      <trkpt lat="49.42595" lon="1.50667">
        <ele>133</ele>
        <time>2018-10-11T15:52:46Z</time>
      </trkpt>
      <trkpt lat="49.42549" lon="1.50311">
        <ele>154</ele>
        <time>2018-10-11T15:53:46Z</time>
      </trkpt>
      <trkpt lat="49.42485" lon="1.50141">
        <ele>149</ele>
        <time>2018-10-11T15:54:46Z</time>
      </trkpt>
      <trkpt lat="49.42694" lon="1.50004">
        <ele>159</ele>
        <time>2018-10-11T15:55:46Z</time>
      </trkpt>
      <trkpt lat="49.42767" lon="1.49974">
        <ele>158</ele>
        <time>2018-10-11T15:56:46Z</time>
      </trkpt>
      <trkpt lat="49.42856" lon="1.49976">
        <ele>153</ele>
        <time>2018-10-11T15:57:46Z</time>
      </trkpt>
      <trkpt lat="49.42855" lon="1.49972">
        <ele>153</ele>
        <time>2018-10-11T15:58:46Z</time>
      </trkpt>
      <trkpt lat="49.42874" lon="1.4989">
        <ele>139</ele>
        <time>2018-10-11T15:59:46Z</time>
      </trkpt>
      <trkpt lat="49.42954" lon="1.49897">
        <ele>136</ele>
        <time>2018-10-11T16:00:46Z</time>
      </trkpt>
      <trkpt lat="49.42957" lon="1.4985">
        <ele>128</ele>
        <time>2018-10-11T16:01:46Z</time>
      </trkpt>
      <trkpt lat="49.43139" lon="1.49935">
        <ele>120</ele>
        <time>2018-10-11T16:02:46Z</time>
      </trkpt>
      <trkpt lat="49.43144" lon="1.50046">
        <ele>122</ele>
        <time>2018-10-11T16:03:46Z</time>
      </trkpt>
      <trkpt lat="49.43185" lon="1.501">
        <ele>119</ele>
        <time>2018-10-11T16:04:46Z</time>
      </trkpt>
      <trkpt lat="49.43411" lon="1.50087">
        <ele>119</ele>
        <time>2018-10-11T16:05:46Z</time>
      </trkpt>
      <trkpt lat="49.43818" lon="1.50358">
        <ele>129</ele>
        <time>2018-10-11T16:06:46Z</time>
      </trkpt>
      <trkpt lat="49.43897" lon="1.50245">
        <ele>135</ele>
        <time>2018-10-11T16:07:46Z</time>
      </trkpt>
      <trkpt lat="49.44045" lon="1.50161">
        <ele>146</ele>
        <time>2018-10-11T16:08:46Z</time>
      </trkpt>
      <trkpt lat="49.44286" lon="1.50139">
        <ele>151</ele>
        <time>2018-10-11T16:09:46Z</time>
      </trkpt>
      <trkpt lat="49.44568" lon="1.50443">
        <ele>158</ele>
        <time>2018-10-11T16:10:46Z</time>
      </trkpt>
      <trkpt lat="49.44557" lon="1.50499">
        <ele>162</ele>
        <time>2018-10-11T16:11:46Z</time>
      </trkpt>
      <trkpt lat="49.44463" lon="1.50461">
        <ele>166</ele>
        <time>2018-10-11T16:12:46Z</time>
      </trkpt>
      <trkpt lat="49.44501" lon="1.5058">
        <ele>179</ele>
        <time>2018-10-11T16:13:46Z</time>
      </trkpt>
      <trkpt lat="49.44488" lon="1.5073">
        <ele>182</ele>
        <time>2018-10-11T16:14:46Z</time>
      </trkpt>
      <trkpt lat="49.44428" lon="1.50909">
        <ele>178</ele>
        <time>2018-10-11T16:15:46Z</time>
      </trkpt>
      <trkpt lat="49.44183" lon="1.51381">
        <ele>170</ele>
        <time>2018-10-11T16:16:46Z</time>
      </trkpt>
      <trkpt lat="49.44196" lon="1.51509">
        <ele>165</ele>
        <time>2018-10-11T16:17:46Z</time>
      </trkpt>
      <trkpt lat="49.44169" lon="1.51516">
        <ele>167</ele>
        <time>2018-10-11T16:18:46Z</time>
      </trkpt>
      <trkpt lat="49.44116" lon="1.51577">
        <ele>164</ele>
        <time>2018-10-11T16:19:46Z</time>
      </trkpt>
      <trkpt lat="49.4406" lon="1.51585">
        <ele>161</ele>
        <time>2018-10-11T16:20:46Z</time>
      </trkpt>
      <trkpt lat="49.44" lon="1.51595">
        <ele>153</ele>
        <time>2018-10-11T16:21:46Z</time>
      </trkpt>
      <trkpt lat="49.43929" lon="1.51641">
        <ele>149</ele>
        <time>2018-10-11T16:22:46Z</time>
      </trkpt>
      <trkpt lat="49.44118" lon="1.51894">
        <ele>150</ele>
        <time>2018-10-11T16:23:46Z</time>
      </trkpt>
      <trkpt lat="49.43726" lon="1.5218">
        <ele>172</ele>
        <time>2018-10-11T16:24:46Z</time>
      </trkpt>
      <trkpt lat="49.43786" lon="1.5242">
        <ele>167</ele>
        <time>2018-10-11T16:25:46Z</time>
      </trkpt>
      <trkpt lat="49.43811" lon="1.5268">
        <ele>165</ele>
        <time>2018-10-11T16:26:46Z</time>
      </trkpt>
      <trkpt lat="49.43796" lon="1.52733">
        <ele>165</ele>
        <time>2018-10-11T16:27:46Z</time>
      </trkpt>
      <trkpt lat="49.43629" lon="1.52871">
        <ele>165</ele>
        <time>2018-10-11T16:28:46Z</time>
      </trkpt>
      <trkpt lat="49.43514" lon="1.52955">
        <ele>171</ele>
        <time>2018-10-11T16:29:46Z</time>
      </trkpt>
      <trkpt lat="49.43416" lon="1.52996">
        <ele>170</ele>
        <time>2018-10-11T16:30:46Z</time>
      </trkpt>
      <trkpt lat="49.43184" lon="1.53154">
        <ele>165</ele>
        <time>2018-10-11T16:31:46Z</time>
      </trkpt>
      <trkpt lat="49.43094" lon="1.53126">
        <ele>160</ele>
        <time>2018-10-11T16:32:46Z</time>
      </trkpt>
      <trkpt lat="49.4301" lon="1.53116">
        <ele>158</ele>
        <time>2018-10-11T16:33:46Z</time>
      </trkpt>
      <trkpt lat="49.4293" lon="1.53086">
        <ele>156</ele>
        <time>2018-10-11T16:34:46Z</time>
      </trkpt>
      <trkpt lat="49.42867" lon="1.5308">
        <ele>149</ele>
        <time>2018-10-11T16:35:46Z</time>
      </trkpt>
      <trkpt lat="49.42827" lon="1.53063">
        <ele>143</ele>
        <time>2018-10-11T16:36:46Z</time>
      </trkpt>
      <trkpt lat="49.42797" lon="1.53083">
        <ele>136</ele>
        <time>2018-10-11T16:37:46Z</time>
      </trkpt>
      <trkpt lat="49.42766" lon="1.53154">
        <ele>132</ele>
        <time>2018-10-11T16:38:46Z</time>
      </trkpt>
      <trkpt lat="49.42804" lon="1.53249">
        <ele>139</ele>
        <time>2018-10-11T16:39:46Z</time>
      </trkpt>
      <trkpt lat="49.42812" lon="1.5332">
        <ele>139</ele>
        <time>2018-10-11T16:40:46Z</time>
      </trkpt>
      <trkpt lat="49.42879" lon="1.53449">
        <ele>141</ele>
        <time>2018-10-11T16:41:46Z</time>
      </trkpt>
      <trkpt lat="49.42975" lon="1.53698">
        <ele>139</ele>
        <time>2018-10-11T16:42:46Z</time>
      </trkpt>
      <trkpt lat="49.43161" lon="1.53797">
        <ele>138</ele>
        <time>2018-10-11T16:43:46Z</time>
      </trkpt>
      <trkpt lat="49.43222" lon="1.53854">
        <ele>136</ele>
        <time>2018-10-11T16:44:46Z</time>
      </trkpt>
      <trkpt lat="49.43217" lon="1.53958">
        <ele>146</ele>
        <time>2018-10-11T16:45:46Z</time>
      </trkpt>
      <trkpt lat="49.43207" lon="1.54127">
        <ele>158</ele>
        <time>2018-10-11T16:46:46Z</time>
      </trkpt>
      <trkpt lat="49.43169" lon="1.54285">
        <ele>161</ele>
        <time>2018-10-11T16:47:46Z</time>
      </trkpt>
      <trkpt lat="49.43194" lon="1.54321">
        <ele>160</ele>
        <time>2018-10-11T16:48:46Z</time>
      </trkpt>
      <trkpt lat="49.43051" lon="1.54563">
        <ele>159</ele>
        <time>2018-10-11T16:49:46Z</time>
      </trkpt>
      <trkpt lat="49.42945" lon="1.54657">
        <ele>162</ele>
        <time>2018-10-11T16:50:46Z</time>
      </trkpt>
      <trkpt lat="49.43046" lon="1.55145">
        <ele>167</ele>
        <time>2018-10-11T16:51:46Z</time>
      </trkpt>
      <trkpt lat="49.43132" lon="1.55104">
        <ele>165</ele>
        <time>2018-10-11T16:52:46Z</time>
      </trkpt>
      <trkpt lat="49.43249" lon="1.55142">
        <ele>166</ele>
        <time>2018-10-11T16:53:46Z</time>
      </trkpt>
      <trkpt lat="49.43255" lon="1.55262">
        <ele>167</ele>
        <time>2018-10-11T16:54:46Z</time>
      </trkpt>
      <trkpt lat="49.43273" lon="1.55364">
        <ele>170</ele>
        <time>2018-10-11T16:55:46Z</time>
      </trkpt>
      <trkpt lat="49.43207" lon="1.55693">
        <ele>164</ele>
        <time>2018-10-11T16:56:46Z</time>
      </trkpt>
      <trkpt lat="49.43268" lon="1.55834">
        <ele>162</ele>
        <time>2018-10-11T16:57:46Z</time>
      </trkpt>
      <trkpt lat="49.43295" lon="1.55937">
        <ele>161</ele>
        <time>2018-10-11T16:58:46Z</time>
      </trkpt>
      <trkpt lat="49.43184" lon="1.56048">
        <ele>166</ele>
        <time>2018-10-11T16:59:46Z</time>
      </trkpt>
      <trkpt lat="49.43088" lon="1.56099">
        <ele>165</ele>
        <time>2018-10-11T17:00:46Z</time>
      </trkpt>
      <trkpt lat="49.43028" lon="1.56158">
        <ele>164</ele>
        <time>2018-10-11T17:01:46Z</time>
      </trkpt>
      <trkpt lat="49.42855" lon="1.56298">
        <ele>159</ele>
        <time>2018-10-11T17:02:46Z</time>
      </trkpt>
      <trkpt lat="49.42784" lon="1.56206">
        <ele>158</ele>
        <time>2018-10-11T17:03:46Z</time>
      </trkpt>
      <trkpt lat="49.42683" lon="1.56117">
        <ele>159</ele>
        <time>2018-10-11T17:04:46Z</time>
      </trkpt>
      <trkpt lat="49.42542" lon="1.55841">
        <ele>160</ele>
        <time>2018-10-11T17:05:46Z</time>
      </trkpt>
      <trkpt lat="49.42494" lon="1.55776">
        <ele>160</ele>
        <time>2018-10-11T17:06:46Z</time>
      </trkpt>
      <trkpt lat="49.42381" lon="1.55727">
        <ele>159</ele>
        <time>2018-10-11T17:07:46Z</time>
      </trkpt>
      <trkpt lat="49.42307" lon="1.55706">
        <ele>160</ele>
        <time>2018-10-11T17:08:46Z</time>
      </trkpt>
      <trkpt lat="49.42075" lon="1.55568">
        <ele>166</ele>
        <time>2018-10-11T17:09:46Z</time>
      </trkpt>
      <trkpt lat="49.42098" lon="1.5526">
        <ele>164</ele>
        <time>2018-10-11T17:10:46Z</time>
      </trkpt>
      <trkpt lat="49.42083" lon="1.54979">
        <ele>162</ele>
        <time>2018-10-11T17:11:46Z</time>
      </trkpt>
      <trkpt lat="49.42039" lon="1.54782">
        <ele>161</ele>
        <time>2018-10-11T17:12:46Z</time>
      </trkpt>
      <trkpt lat="49.41977" lon="1.5441">
        <ele>160</ele>
        <time>2018-10-11T17:13:46Z</time>
      </trkpt>
      <trkpt lat="49.41995" lon="1.53961">
        <ele>161</ele>
        <time>2018-10-11T17:14:46Z</time>
      </trkpt>
      <trkpt lat="49.41911" lon="1.53864">
        <ele>166</ele>
        <time>2018-10-11T17:15:46Z</time>
      </trkpt>
      <trkpt lat="49.41819" lon="1.53716">
        <ele>169</ele>
        <time>2018-10-11T17:16:46Z</time>
      </trkpt>
      <trkpt lat="49.4176" lon="1.53563">
        <ele>173</ele>
        <time>2018-10-11T17:17:46Z</time>
      </trkpt>
      <trkpt lat="49.41927" lon="1.53343">
        <ele>167</ele>
        <time>2018-10-11T17:18:46Z</time>
      </trkpt>
      <trkpt lat="49.41901" lon="1.53111">
        <ele>161</ele>
        <time>2018-10-11T17:19:46Z</time>
      </trkpt>
      <trkpt lat="49.41873" lon="1.53014">
        <ele>156</ele>
        <time>2018-10-11T17:20:46Z</time>
      </trkpt>
      <trkpt lat="49.41851" lon="1.52925">
        <ele>157</ele>
        <time>2018-10-11T17:21:46Z</time>
      </trkpt>
      <trkpt lat="49.41795" lon="1.52792">
        <ele>156</ele>
        <time>2018-10-11T17:22:46Z</time>
      </trkpt>
      <trkpt lat="49.4177" lon="1.52708">
        <ele>156</ele>
        <time>2018-10-11T17:23:46Z</time>
      </trkpt>
      <trkpt lat="49.41627" lon="1.52473">
        <ele>165</ele>
        <time>2018-10-11T17:24:46Z</time>
      </trkpt>
      <trkpt lat="49.41554" lon="1.52298">
        <ele>160</ele>
        <time>2018-10-11T17:25:46Z</time>
      </trkpt>
      <trkpt lat="49.41607" lon="1.52284">
        <ele>157</ele>
        <time>2018-10-11T17:26:46Z</time>
      </trkpt>
      <trkpt lat="49.4168" lon="1.5231">
        <ele>152</ele>
        <time>2018-10-11T17:27:46Z</time>
      </trkpt>
      <trkpt lat="49.41774" lon="1.52353">
        <ele>136</ele>
        <time>2018-10-11T17:28:46Z</time>
      </trkpt>
      <trkpt lat="49.41793" lon="1.52323">
        <ele>127</ele>
        <time>2018-10-11T17:29:46Z</time>
      </trkpt>
      <trkpt lat="49.41734" lon="1.52112">
        <ele>116</ele>
        <time>2018-10-11T17:30:46Z</time>
      </trkpt>
      <trkpt lat="49.41697" lon="1.51906">
        <ele>111</ele>
        <time>2018-10-11T17:31:46Z</time>
      </trkpt>
      <trkpt lat="49.41665" lon="1.51679">
        <ele>106</ele>
        <time>2018-10-11T17:32:46Z</time>
      </trkpt>
      <trkpt lat="49.41663" lon="1.51387">
        <ele>105</ele>
        <time>2018-10-11T17:33:46Z</time>
      </trkpt>
      <trkpt lat="49.41548" lon="1.50928">
        <ele>104</ele>
        <time>2018-10-11T17:34:46Z</time>
      </trkpt>
      <trkpt lat="49.41539" lon="1.50777">
        <ele>105</ele>
        <time>2018-10-11T17:35:46Z</time>
      </trkpt>
      <trkpt lat="49.41557" lon="1.50652">
        <ele>104</ele>
        <time>2018-10-11T17:36:46Z</time>
      </trkpt>
      <trkpt lat="49.41536" lon="1.50571">
        <ele>102</ele>
        <time>2018-10-11T17:37:46Z</time>
      </trkpt>
      <trkpt lat="49.41511" lon="1.5055">
        <ele>101</ele>
        <time>2018-10-11T17:38:46Z</time>
      </trkpt>
      <trkpt lat="49.41476" lon="1.50628">
        <ele>104</ele>
        <time>2018-10-11T17:39:46Z</time>
      </trkpt>
      <trkpt lat="49.41383" lon="1.5074">
        <ele>124</ele>
        <time>2018-10-11T17:40:46Z</time>
      </trkpt>
      <trkpt lat="49.41327" lon="1.50957">
        <ele>139</ele>
        <time>2018-10-11T17:41:46Z</time>
      </trkpt>
      <trkpt lat="49.41318" lon="1.51041">
        <ele>143</ele>
        <time>2018-10-11T17:42:46Z</time>
      </trkpt>
      <trkpt lat="49.41271" lon="1.51129">
        <ele>151</ele>
        <time>2018-10-11T17:43:46Z</time>
      </trkpt>
      <trkpt lat="49.41207" lon="1.50894">
        <ele>152</ele>
        <time>2018-10-11T17:44:46Z</time>
      </trkpt>
      <trkpt lat="49.41196" lon="1.50862">
        <ele>152</ele>
        <time>2018-10-11T17:45:46Z</time>
      </trkpt>
      <trkpt lat="49.41154" lon="1.50708">
        <ele>153</ele>
        <time>2018-10-11T17:46:46Z</time>
      </trkpt>
      <trkpt lat="49.41133" lon="1.50585">
        <ele>153</ele>
        <time>2018-10-11T17:47:46Z</time>
      </trkpt>
      <trkpt lat="49.41112" lon="1.50525">
        <ele>156</ele>
        <time>2018-10-11T17:48:46Z</time>
      </trkpt>
      <trkpt lat="49.41043" lon="1.50459">
        <ele>155</ele>
        <time>2018-10-11T17:49:46Z</time>
      </trkpt>
      <trkpt lat="49.40999" lon="1.50402">
        <ele>151</ele>
        <time>2018-10-11T17:50:46Z</time>
      </trkpt>
      <trkpt lat="49.40961" lon="1.50322">
        <ele>147</ele>
        <time>2018-10-11T17:51:46Z</time>
      </trkpt>
      <trkpt lat="49.40954" lon="1.50279">
        <ele>144</ele>
        <time>2018-10-11T17:52:46Z</time>
      </trkpt>
      <trkpt lat="49.40915" lon="1.50167">
        <ele>140</ele>
        <time>2018-10-11T17:53:46Z</time>
      </trkpt>
      <trkpt lat="49.40881" lon="1.50094">
        <ele>143</ele>
        <time>2018-10-11T17:54:46Z</time>
      </trkpt>
      <trkpt lat="49.40843" lon="1.49981">
        <ele>143</ele>
        <time>2018-10-11T17:55:46Z</time>
      </trkpt>
      <trkpt lat="49.40824" lon="1.49882">
        <ele>141</ele>
        <time>2018-10-11T17:56:46Z</time>
      </trkpt>
      <trkpt lat="49.40819" lon="1.49805">
        <ele>138</ele>
        <time>2018-10-11T17:57:46Z</time>
      </trkpt>
      <trkpt lat="49.40808" lon="1.49742">
        <ele>137</ele>
        <time>2018-10-11T17:58:46Z</time>
      </trkpt>
      <trkpt lat="49.408" lon="1.49678">
        <ele>135</ele>
        <time>2018-10-11T17:59:46Z</time>
      </trkpt>
      <trkpt lat="49.40775" lon="1.49586">
        <ele>137</ele>
        <time>2018-10-11T18:00:46Z</time>
      </trkpt>
      <trkpt lat="49.40695" lon="1.49353">
        <ele>136</ele>
        <time>2018-10-11T18:01:46Z</time>
      </trkpt>
      <trkpt lat="49.40614" lon="1.49192">
        <ele>126</ele>
        <time>2018-10-11T18:02:46Z</time>
      </trkpt>
      <trkpt lat="49.40519" lon="1.49047">
        <ele>107</ele>
        <time>2018-10-11T18:03:46Z</time>
      </trkpt>
      <trkpt lat="49.40499" lon="1.48943">
        <ele>97</ele>
        <time>2018-10-11T18:04:46Z</time>
      </trkpt>
      <trkpt lat="49.40496" lon="1.48891">
        <ele>93</ele>
        <time>2018-10-11T18:05:46Z</time>
      </trkpt>
      <trkpt lat="49.40449" lon="1.4916">
        <ele>110</ele>
        <time>2018-10-11T18:06:46Z</time>
      </trkpt>
      <trkpt lat="49.40427" lon="1.49205">
        <ele>111</ele>
        <time>2018-10-11T18:07:46Z</time>
      </trkpt>
      <trkpt lat="49.40358" lon="1.49282">
        <ele>113</ele>
        <time>2018-10-11T18:08:46Z</time>
      </trkpt>
      <trkpt lat="49.40296" lon="1.49316">
        <ele>111</ele>
        <time>2018-10-11T18:09:46Z</time>
      </trkpt>
      <trkpt lat="49.40285" lon="1.49384">
        <ele>113</ele>
        <time>2018-10-11T18:10:46Z</time>
      </trkpt>
      <trkpt lat="49.40353" lon="1.49548">
        <ele>121</ele>
        <time>2018-10-11T18:11:46Z</time>
      </trkpt>
      <trkpt lat="49.40352" lon="1.49673">
        <ele>124</ele>
        <time>2018-10-11T18:12:46Z</time>
      </trkpt>
      <trkpt lat="49.40331" lon="1.49741">
        <ele>124</ele>
        <time>2018-10-11T18:13:46Z</time>
      </trkpt>
      <trkpt lat="49.40146" lon="1.49976">
        <ele>133</ele>
        <time>2018-10-11T18:14:46Z</time>
      </trkpt>
      <trkpt lat="49.40121" lon="1.50053">
        <ele>139</ele>
        <time>2018-10-11T18:15:46Z</time>
      </trkpt>
      <trkpt lat="49.39989" lon="1.49969">
        <ele>150</ele>
        <time>2018-10-11T18:16:46Z</time>
      </trkpt>
      <trkpt lat="49.3999" lon="1.49902">
        <ele>150</ele>
        <time>2018-10-11T18:17:46Z</time>
      </trkpt>
      <trkpt lat="49.40141" lon="1.49573">
        <ele>136</ele>
        <time>2018-10-11T18:18:46Z</time>
      </trkpt>
      <trkpt lat="49.40145" lon="1.49445">
        <ele>125</ele>
        <time>2018-10-11T18:19:46Z</time>
      </trkpt>
      <trkpt lat="49.40037" lon="1.49438">
        <ele>144</ele>
        <time>2018-10-11T18:20:46Z</time>
      </trkpt>
      <trkpt lat="49.40042" lon="1.49246">
        <ele>143</ele>
        <time>2018-10-11T18:21:46Z</time>
      </trkpt>
      <trkpt lat="49.39995" lon="1.48991">
        <ele>152</ele>
        <time>2018-10-11T18:22:46Z</time>
      </trkpt>
      <trkpt lat="49.39891" lon="1.48978">
        <ele>154</ele>
        <time>2018-10-11T18:23:46Z</time>
      </trkpt>
      <trkpt lat="49.39884" lon="1.48871">
        <ele>153</ele>
        <time>2018-10-11T18:24:46Z</time>
      </trkpt>
      <trkpt lat="49.39837" lon="1.48762">
        <ele>157</ele>
        <time>2018-10-11T18:25:46Z</time>
      </trkpt>
      <trkpt lat="49.39846" lon="1.48654">
        <ele>147</ele>
        <time>2018-10-11T18:26:46Z</time>
      </trkpt>
      <trkpt lat="49.39944" lon="1.48435">
        <ele>124</ele>
        <time>2018-10-11T18:27:46Z</time>
      </trkpt>
      <trkpt lat="49.3999" lon="1.48356">
        <ele>120</ele>
        <time>2018-10-11T18:28:46Z</time>
      </trkpt>
      <trkpt lat="49.4003" lon="1.4821">
        <ele>111</ele>
        <time>2018-10-11T18:29:46Z</time>
      </trkpt>
      <trkpt lat="49.40022" lon="1.48113">
        <ele>107</ele>
        <time>2018-10-11T18:30:46Z</time>
      </trkpt>
      <trkpt lat="49.3997" lon="1.48011">
        <ele>105</ele>
        <time>2018-10-11T18:31:46Z</time>
      </trkpt>
      <trkpt lat="49.39972" lon="1.47853">
        <ele>102</ele>
        <time>2018-10-11T18:32:46Z</time>
      </trkpt>
      <trkpt lat="49.39955" lon="1.47832">
        <ele>103</ele>
        <time>2018-10-11T18:33:46Z</time>
      </trkpt>
      <trkpt lat="49.39895" lon="1.47885">
        <ele>109</ele>
        <time>2018-10-11T18:34:46Z</time>
      </trkpt>
      <trkpt lat="49.39706" lon="1.47877">
        <ele>135</ele>
        <time>2018-10-11T18:35:46Z</time>
      </trkpt>
      <trkpt lat="49.39454" lon="1.47539">
        <ele>159</ele>
        <time>2018-10-11T18:36:46Z</time>
      </trkpt>
      <trkpt lat="49.39205" lon="1.47341">
        <ele>162</ele>
        <time>2018-10-11T18:37:46Z</time>
      </trkpt>
      <trkpt lat="49.3918" lon="1.47294">
        <ele>163</ele>
        <time>2018-10-11T18:38:46Z</time>
      </trkpt>
      <trkpt lat="49.39131" lon="1.4712">
        <ele>166</ele>
        <time>2018-10-11T18:39:46Z</time>
      </trkpt>
      <trkpt lat="49.39099" lon="1.47026">
        <ele>164</ele>
        <time>2018-10-11T18:40:46Z</time>
      </trkpt>
      <trkpt lat="49.39204" lon="1.46983">
        <ele>152</ele>
        <time>2018-10-11T18:41:46Z</time>
      </trkpt>
      <trkpt lat="49.39384" lon="1.46983">
        <ele>127</ele>
        <time>2018-10-11T18:42:46Z</time>
      </trkpt>
      <trkpt lat="49.39566" lon="1.46837">
        <ele>101</ele>
        <time>2018-10-11T18:43:46Z</time>
      </trkpt>
      <trkpt lat="49.39687" lon="1.46678">
        <ele>82</ele>
        <time>2018-10-11T18:44:46Z</time>
      </trkpt>
      <trkpt lat="49.39811" lon="1.46727">
        <ele>82</ele>
        <time>2018-10-11T18:45:46Z</time>
      </trkpt>
      <trkpt lat="49.39835" lon="1.46686">
        <ele>82</ele>
        <time>2018-10-11T18:46:46Z</time>
      </trkpt>
      <trkpt lat="49.3989" lon="1.46637">
        <ele>87</ele>
        <time>2018-10-11T18:47:46Z</time>
      </trkpt>
      <trkpt lat="49.4001" lon="1.46691">
        <ele>102</ele>
        <time>2018-10-11T18:48:46Z</time>
      </trkpt>
      <trkpt lat="49.4003" lon="1.4672">
        <ele>105</ele>
        <time>2018-10-11T18:49:46Z</time>
      </trkpt>
      <trkpt lat="49.4008" lon="1.46745">
        <ele>114</ele>
        <time>2018-10-11T18:50:46Z</time>
      </trkpt>
      <trkpt lat="49.40177" lon="1.46864">
        <ele>127</ele>
        <time>2018-10-11T18:51:46Z</time>
      </trkpt>
      <trkpt lat="49.4026" lon="1.46994">
        <ele>138</ele>
        <time>2018-10-11T18:52:46Z</time>
      </trkpt>
      <trkpt lat="49.40218" lon="1.47104">
        <ele>123</ele>
        <time>2018-10-11T18:53:46Z</time>
      </trkpt>
      <trkpt lat="49.40185" lon="1.47261">
        <ele>105</ele>
        <time>2018-10-11T18:54:46Z</time>
      </trkpt>
      <trkpt lat="49.40125" lon="1.47324">
        <ele>89</ele>
        <time>2018-10-11T18:55:46Z</time>
      </trkpt>
      <trkpt lat="49.39926" lon="1.47346">
        <ele>93</ele>
        <time>2018-10-11T18:56:46Z</time>
      </trkpt>
      <trkpt lat="49.39889" lon="1.47295">
        <ele>94</ele>
        <time>2018-10-11T18:57:46Z</time>
      </trkpt>
      <trkpt lat="49.39905" lon="1.47391">
        <ele>96</ele>
        <time>2018-10-11T18:58:46Z</time>
      </trkpt>
      <trkpt lat="49.39929" lon="1.47425">
        <ele>96</ele>
        <time>2018-10-11T18:59:46Z</time>
      </trkpt>
      <trkpt lat="49.39965" lon="1.47503">
        <ele>97</ele>
        <time>2018-10-11T19:00:46Z</time>
      </trkpt>
      <trkpt lat="49.39979" lon="1.47608">
        <ele>100</ele>
        <time>2018-10-11T19:01:46Z</time>
      </trkpt>
      <trkpt lat="49.39932" lon="1.47656">
        <ele>105</ele>
        <time>2018-10-11T19:02:46Z</time>
      </trkpt>
      <trkpt lat="49.39872" lon="1.47671">
        <ele>107</ele>
        <time>2018-10-11T19:03:46Z</time>
      </trkpt>
      <trkpt lat="49.3993" lon="1.47783">
        <ele>105</ele>
        <time>2018-10-11T19:04:46Z</time>
      </trkpt>
      <trkpt lat="49.40059" lon="1.47593">
        <ele>93</ele>
        <time>2018-10-11T19:05:46Z</time>
      </trkpt>
      <trkpt lat="49.40105" lon="1.47644">
        <ele>92</ele>
        <time>2018-10-11T19:06:46Z</time>
      </trkpt>
      <trkpt lat="49.40166" lon="1.47848">
        <ele>89</ele>
        <time>2018-10-11T19:07:46Z</time>
      </trkpt>
      <trkpt lat="49.40342" lon="1.47782">
        <ele>96</ele>
        <time>2018-10-11T19:08:46Z</time>
      </trkpt>
      <trkpt lat="49.40437" lon="1.48231">
        <ele>98</ele>
        <time>2018-10-11T19:09:46Z</time>
      </trkpt>
      <trkpt lat="49.40488" lon="1.48325">
        <ele>93</ele>
        <time>2018-10-11T19:10:46Z</time>
      </trkpt>
      <trkpt lat="49.40597" lon="1.48554">
        <ele>94</ele>
        <time>2018-10-11T19:11:46Z</time>
      </trkpt>
      <trkpt lat="49.41121" lon="1.49499">
        <ele>95</ele>
        <time>2018-10-11T19:12:46Z</time>
      </trkpt>
      <trkpt lat="49.41096" lon="1.49554">
        <ele>93</ele>
        <time>2018-10-11T19:13:46Z</time>
      </trkpt>
      <trkpt lat="49.41104" lon="1.49613">
        <ele>94</ele>
        <time>2018-10-11T19:14:46Z</time>
      </trkpt>
      <trkpt lat="49.41151" lon="1.49698">
        <ele>96</ele>
        <time>2018-10-11T19:15:46Z</time>
      </trkpt>
      <trkpt lat="49.41229" lon="1.49772">
        <ele>95</ele>
        <time>2018-10-11T19:16:46Z</time>
      </trkpt>
      <trkpt lat="49.4129" lon="1.49875">
        <ele>98</ele>
        <time>2018-10-11T19:17:46Z</time>
      </trkpt>
    </trkseg>
  </trk>
</gpx>